Time;durP1;ratioP1;P1;durP2;ratioP2;P2;SDS_P1;SDS_P2;PMS_P1;PMS_P2;Temp;Humidity;BMP_temperature;BMP_pressure;BME280_temperature;BME280_humidity;BME280_pressure;Samples;Min_cycle;Max_cycle;Signal;HPM_P1;HPM_P2
2023/12/24 00:00:37;;;;;;;0.38;0.38;;;9.90;99.90;;;;;;5049727;28;20695;-60
2023/12/24 00:03:06;;;;;;;3.40;0.30;;;9.90;99.90;;;;;;5044775;28;20241;-60
2023/12/24 00:05:33;;;;;;;3.05;0.50;;;9.90;99.90;;;;;;5048733;28;20259;-61
2023/12/24 00:08:03;;;;;;;1.17;0.30;;;9.90;99.90;;;;;;5032955;28;20258;-60
2023/12/24 00:10:31;;;;;;;1.17;0.30;;;9.90;99.90;;;;;;5044312;28;20271;-61
2023/12/24 00:12:59;;;;;;;1.67;0.50;;;9.90;99.90;;;;;;5045595;28;21021;-61
2023/12/24 00:15:27;;;;;;;2.53;0.30;;;9.90;99.90;;;;;;5044844;28;20655;-60
2023/12/24 00:17:54;;;;;;;0.85;0.52;;;9.90;99.90;;;;;;5047846;28;20258;-60
2023/12/24 00:20:23;;;;;;;4.85;0.50;;;9.90;99.90;;;;;;5051148;28;20233;-61
2023/12/24 00:23:05;;;;;;;1.88;0.40;;;9.90;99.90;;;;;;5032870;28;20207;-60
2023/12/24 00:25:33;;;;;;;2.17;0.43;;;9.90;99.90;;;;;;5032396;28;20213;-60
2023/12/24 00:28:01;;;;;;;2.03;0.52;;;9.90;99.90;;;;;;5032296;28;20635;-60
2023/12/24 00:30:29;;;;;;;0.95;0.40;;;9.90;99.90;;;;;;5042955;28;20198;-61
2023/12/24 00:32:57;;;;;;;1.20;0.40;;;9.90;99.90;;;;;;5045587;28;20206;-60
2023/12/24 00:35:26;;;;;;;2.72;0.35;;;9.90;99.90;;;;;;5048362;28;20213;-60
2023/12/24 00:37:56;;;;;;;0.55;0.55;;;9.90;99.90;;;;;;5032253;28;20258;-60
2023/12/24 00:40:25;;;;;;;0.43;0.40;;;9.90;99.90;;;;;;5041236;28;20731;-60
2023/12/24 00:42:53;;;;;;;0.57;0.50;;;9.90;99.90;;;;;;5046091;28;20233;-60
2023/12/24 00:45:21;;;;;;;0.57;0.40;;;9.90;99.90;;;;;;5043293;28;20206;-60
2023/12/24 00:47:49;;;;;;;0.40;0.40;;;10.00;99.90;;;;;;5036456;28;20226;-60
2023/12/24 00:50:17;;;;;;;0.52;0.40;;;10.00;99.90;;;;;;5039769;28;20199;-60
2023/12/24 00:52:46;;;;;;;1.45;0.30;;;10.00;99.90;;;;;;5032061;28;20411;-61
2023/12/24 00:55:14;;;;;;;0.40;0.40;;;10.00;99.90;;;;;;5031387;28;20666;-60
2023/12/24 00:57:43;;;;;;;8.80;0.52;;;10.00;99.90;;;;;;5032316;28;20652;-60
2023/12/24 01:00:12;;;;;;;1.30;0.40;;;10.10;99.90;;;;;;5039209;28;20225;-60
2023/12/24 01:02:40;;;;;;;2.08;0.50;;;10.10;99.90;;;;;;5047061;28;20206;-61
2023/12/24 01:05:08;;;;;;;3.35;0.63;;;10.00;99.90;;;;;;5045929;28;20206;-60
2023/12/24 01:07:36;;;;;;;0.82;0.43;;;10.10;99.90;;;;;;5046110;28;20328;-61
2023/12/24 01:10:05;;;;;;;2.25;0.40;;;10.10;99.90;;;;;;5046492;28;20230;-61
2023/12/24 01:12:33;;;;;;;1.02;0.43;;;10.10;99.90;;;;;;5046736;28;20229;-60
2023/12/24 01:15:02;;;;;;;0.40;0.20;;;10.10;99.90;;;;;;5043653;28;20234;-60
2023/12/24 01:17:30;;;;;;;0.82;0.30;;;10.00;99.90;;;;;;5043861;28;20222;-61
2023/12/24 01:19:58;;;;;;;2.38;0.40;;;10.10;99.90;;;;;;5045227;28;20255;-60
2023/12/24 01:22:26;;;;;;;2.08;0.30;;;10.10;99.90;;;;;;5051664;28;20209;-60
2023/12/24 01:24:54;;;;;;;1.27;0.60;;;10.10;99.90;;;;;;5044575;28;20581;-61
2023/12/24 01:27:23;;;;;;;2.13;0.43;;;10.20;99.90;;;;;;5047798;28;20221;-60
2023/12/24 01:29:52;;;;;;;1.20;0.30;;;10.10;99.90;;;;;;5040550;28;20702;-61
2023/12/24 01:32:21;;;;;;;0.40;0.20;;;10.10;99.90;;;;;;5045932;28;20296;-61
2023/12/24 01:34:49;;;;;;;1.60;0.28;;;10.10;99.90;;;;;;5047831;28;20288;-61
2023/12/24 01:37:17;;;;;;;1.25;0.30;;;10.10;99.90;;;;;;5044310;28;20237;-61
2023/12/24 01:39:45;;;;;;;0.32;0.30;;;10.10;99.90;;;;;;5048861;28;20209;-60
2023/12/24 01:42:13;;;;;;;1.15;0.20;;;10.10;99.90;;;;;;5045740;28;20336;-60
2023/12/24 01:44:41;;;;;;;1.60;0.28;;;10.10;99.90;;;;;;5045674;28;20301;-61
2023/12/24 01:47:09;;;;;;;4.35;0.40;;;10.10;99.90;;;;;;5046926;28;20223;-61
2023/12/24 01:49:38;;;;;;;0.32;0.32;;;10.20;99.90;;;;;;5044019;28;20293;-61
2023/12/24 01:52:06;;;;;;;0.75;0.30;;;10.20;99.90;;;;;;5045143;28;20622;-61
2023/12/24 01:54:34;;;;;;;1.10;0.35;;;10.20;99.90;;;;;;5034974;28;20205;-61
2023/12/24 01:57:02;;;;;;;1.23;0.30;;;10.20;99.90;;;;;;5042629;28;20256;-60
2023/12/24 01:59:30;;;;;;;1.00;0.47;;;10.20;99.90;;;;;;5042368;28;20285;-60
2023/12/24 02:01:58;;;;;;;1.85;0.60;;;10.20;99.90;;;;;;5040051;28;20574;-60
2023/12/24 02:04:26;;;;;;;0.60;0.30;;;10.20;99.90;;;;;;5033725;28;20229;-61
2023/12/24 02:06:55;;;;;;;5.68;0.50;;;10.20;99.90;;;;;;5049081;28;20795;-60
2023/12/24 02:09:23;;;;;;;0.30;0.30;;;10.20;99.90;;;;;;5034707;28;20301;-59
2023/12/24 02:11:51;;;;;;;0.80;0.40;;;10.30;99.90;;;;;;5048361;28;20194;-59
2023/12/24 02:14:19;;;;;;;0.47;0.47;;;10.20;99.90;;;;;;5048985;28;20210;-60
2023/12/24 02:16:47;;;;;;;1.75;0.20;;;10.20;99.90;;;;;;5048100;28;20707;-59
2023/12/24 02:19:17;;;;;;;0.30;0.20;;;10.20;99.90;;;;;;5035094;28;20209;-59
2023/12/24 02:21:47;;;;;;;0.22;0.22;;;10.20;99.90;;;;;;5051131;28;20604;-59
2023/12/24 02:24:15;;;;;;;0.20;0.20;;;10.20;99.90;;;;;;5051373;28;20294;-59
2023/12/24 02:26:48;;;;;;;2.38;0.30;;;10.30;99.90;;;;;;5051880;28;20242;-59
2023/12/24 02:29:26;;;;;;;0.73;0.30;;;10.30;99.90;;;;;;5042849;28;20230;-59
2023/12/24 02:31:58;;;;;;;0.95;0.50;;;10.30;99.90;;;;;;5051515;28;20727;-59
2023/12/24 02:34:26;;;;;;;1.77;0.40;;;10.30;99.90;;;;;;5045944;28;20659;-59
2023/12/24 02:36:55;;;;;;;0.20;0.20;;;10.30;99.90;;;;;;5042559;28;20722;-59
2023/12/24 02:39:23;;;;;;;1.55;0.30;;;10.30;99.90;;;;;;5053256;28;20230;-59
2023/12/24 02:41:50;;;;;;;1.58;0.50;;;10.30;99.90;;;;;;5045890;28;20801;-59
2023/12/24 02:44:18;;;;;;;3.30;0.20;;;10.30;99.90;;;;;;5046008;28;20226;-59
2023/12/24 02:46:46;;;;;;;1.00;0.40;;;10.20;99.90;;;;;;5049538;28;20225;-59
2023/12/24 02:49:14;;;;;;;1.05;0.40;;;10.20;99.90;;;;;;5042242;28;20293;-59
2023/12/24 02:51:42;;;;;;;0.55;0.30;;;10.20;99.90;;;;;;5044726;28;20721;-59
2023/12/24 02:54:11;;;;;;;0.60;0.30;;;10.20;99.90;;;;;;5053722;28;20263;-59
2023/12/24 02:56:39;;;;;;;0.82;0.57;;;10.30;99.90;;;;;;5043609;28;20252;-59
2023/12/24 02:59:07;;;;;;;1.95;0.30;;;10.30;99.90;;;;;;5041839;28;20209;-59
2023/12/24 03:01:35;;;;;;;2.53;0.60;;;10.30;99.90;;;;;;5043433;28;20669;-59
2023/12/24 03:04:04;;;;;;;0.60;0.60;;;10.30;99.90;;;;;;5045541;28;20369;-59
2023/12/24 03:06:32;;;;;;;0.40;0.40;;;10.20;99.90;;;;;;5044663;28;20613;-59
2023/12/24 03:09:00;;;;;;;1.38;0.50;;;10.20;99.90;;;;;;5047277;28;20202;-59
2023/12/24 03:11:29;;;;;;;0.63;0.40;;;10.20;99.90;;;;;;5044950;28;20206;-59
2023/12/24 03:13:57;;;;;;;0.60;0.40;;;10.20;99.90;;;;;;5047168;28;20239;-59
2023/12/24 03:16:26;;;;;;;0.40;0.40;;;10.20;99.90;;;;;;5045061;28;20202;-59
2023/12/24 03:18:53;;;;;;;5.28;0.73;;;10.20;99.90;;;;;;5041695;28;20654;-59
2023/12/24 03:21:21;;;;;;;3.35;0.40;;;10.10;99.90;;;;;;5049150;28;20225;-59
2023/12/24 03:23:49;;;;;;;0.20;0.20;;;10.10;99.90;;;;;;5048763;28;20202;-59
2023/12/24 03:26:21;;;;;;;0.63;0.28;;;10.00;99.90;;;;;;5049616;28;20244;-59
2023/12/24 03:28:50;;;;;;;0.38;0.30;;;10.00;99.90;;;;;;5043752;28;20608;-60
2023/12/24 03:31:18;;;;;;;1.30;0.25;;;10.00;99.90;;;;;;5046868;28;20626;-59
2023/12/24 03:33:46;;;;;;;1.20;0.47;;;10.00;99.90;;;;;;5051751;28;20737;-59
2023/12/24 03:36:14;;;;;;;1.45;0.40;;;9.90;99.90;;;;;;5048089;28;20237;-59
2023/12/24 03:38:42;;;;;;;1.00;0.40;;;9.90;99.90;;;;;;5043718;28;20233;-59
2023/12/24 03:41:10;;;;;;;0.30;0.30;;;9.90;99.90;;;;;;5038442;22;20262;-75
2023/12/24 03:43:38;;;;;;;1.95;0.40;;;9.90;99.90;;;;;;5023473;28;20685;-75
2023/12/24 03:46:07;;;;;;;0.65;0.50;;;9.90;99.90;;;;;;5031968;28;20206;-78
2023/12/24 03:48:37;;;;;;;0.30;0.30;;;9.90;99.90;;;;;;5031281;28;20293;-78
2023/12/24 03:51:05;;;;;;;1.25;0.40;;;9.90;99.90;;;;;;5018236;28;20214;-78
2023/12/24 03:53:33;;;;;;;0.98;0.40;;;9.90;99.90;;;;;;5032352;28;20678;-78
2023/12/24 03:56:01;;;;;;;2.20;0.30;;;9.90;99.90;;;;;;5030463;28;20676;-77
2023/12/24 03:58:29;;;;;;;2.33;0.55;;;9.90;99.90;;;;;;5023935;28;20260;-79
2023/12/24 04:00:57;;;;;;;0.85;0.20;;;9.90;99.90;;;;;;5024940;28;20598;-79
2023/12/24 04:03:27;;;;;;;4.55;0.30;;;9.90;99.90;;;;;;5024679;28;20593;-78
2023/12/24 04:05:55;;;;;;;2.90;0.30;;;9.90;99.90;;;;;;5031981;28;20257;-79
2023/12/24 04:08:23;;;;;;;0.98;0.30;;;9.90;99.90;;;;;;5022958;28;20285;-78
2023/12/24 04:10:51;;;;;;;0.50;0.40;;;9.90;99.90;;;;;;5031598;28;20210;-79
2023/12/24 04:13:18;;;;;;;3.28;0.40;;;9.90;99.90;;;;;;5020074;28;20203;-79
2023/12/24 04:15:46;;;;;;;0.60;0.60;;;9.90;99.90;;;;;;5030343;28;20207;-78
2023/12/24 04:18:14;;;;;;;1.98;0.40;;;10.00;99.90;;;;;;5031887;28;20253;-79
2023/12/24 04:20:44;;;;;;;0.30;0.30;;;10.00;99.90;;;;;;5025615;28;20308;-79
2023/12/24 04:23:12;;;;;;;0.47;0.47;;;10.00;99.90;;;;;;5031389;28;20223;-78
2023/12/24 04:25:40;;;;;;;0.40;0.40;;;9.90;99.90;;;;;;5029403;28;20677;-78
2023/12/24 04:28:08;;;;;;;0.73;0.52;;;10.00;99.90;;;;;;5019118;28;20222;-79
2023/12/24 04:30:36;;;;;;;0.50;0.30;;;10.00;99.90;;;;;;5026202;28;20211;-78
2023/12/24 04:33:04;;;;;;;1.40;0.30;;;10.00;99.90;;;;;;5031747;28;20577;-78
2023/12/24 04:35:33;;;;;;;0.30;0.30;;;10.00;99.90;;;;;;5029555;28;20206;-78
2023/12/24 04:38:02;;;;;;;0.30;0.30;;;10.00;99.90;;;;;;5030717;28;20289;-78
2023/12/24 04:40:30;;;;;;;0.25;0.25;;;10.00;99.90;;;;;;5025124;28;20215;-78
2023/12/24 04:42:58;;;;;;;0.20;0.20;;;10.10;99.90;;;;;;5017425;28;20222;-78
2023/12/24 04:45:26;;;;;;;0.20;0.20;;;10.10;99.90;;;;;;5029167;28;20210;-78
2023/12/24 04:47:58;;;;;;;0.90;0.20;;;10.10;99.90;;;;;;5017276;28;20821;-77
2023/12/24 04:50:26;;;;;;;1.00;0.40;;;10.10;99.90;;;;;;5029757;28;20210;-77
2023/12/24 04:52:54;;;;;;;0.30;0.30;;;10.10;99.90;;;;;;5031351;28;20201;-76
2023/12/24 04:55:23;;;;;;;0.82;0.50;;;10.10;99.90;;;;;;5030837;28;20199;-77
2023/12/24 04:57:51;;;;;;;0.30;0.30;;;10.00;99.90;;;;;;5026981;28;20235;-77
2023/12/24 05:00:19;;;;;;;0.35;0.20;;;10.00;99.90;;;;;;5031247;28;20207;-77
2023/12/24 05:02:47;;;;;;;0.30;0.30;;;10.00;99.90;;;;;;5024259;28;20234;-78
2023/12/24 05:05:16;;;;;;;0.30;0.30;;;10.10;99.90;;;;;;5028397;28;20292;-78
2023/12/24 05:07:44;;;;;;;0.68;0.25;;;10.00;99.90;;;;;;5031393;28;20232;-78
2023/12/24 05:10:12;;;;;;;0.35;0.35;;;10.00;99.90;;;;;;5031194;28;20644;-78
2023/12/24 05:12:41;;;;;;;3.05;0.30;;;10.00;99.90;;;;;;5031228;28;20241;-78
2023/12/24 05:15:10;;;;;;;0.30;0.30;;;10.00;99.90;;;;;;5020682;28;20273;-78
2023/12/24 05:17:37;;;;;;;1.27;0.20;;;10.00;99.90;;;;;;5016833;28;20273;-78
2023/12/24 05:20:07;;;;;;;2.85;0.52;;;10.00;99.90;;;;;;5018033;28;20581;-77
2023/12/24 05:22:35;;;;;;;0.30;0.30;;;10.00;99.90;;;;;;5032302;28;20758;-77
2023/12/24 05:25:03;;;;;;;1.50;0.30;;;10.00;99.90;;;;;;5027099;28;20687;-77
2023/12/24 05:27:31;;;;;;;0.20;0.20;;;9.90;99.90;;;;;;5030151;28;20226;-78
2023/12/24 05:30:00;;;;;;;1.95;0.30;;;9.90;99.90;;;;;;5031293;28;20234;-77
2023/12/24 05:32:28;;;;;;;1.75;0.52;;;9.90;99.90;;;;;;5030681;28;20248;-76
2023/12/24 05:34:56;;;;;;;0.88;0.20;;;9.90;99.90;;;;;;5030088;28;20254;-76
2023/12/24 05:37:24;;;;;;;0.40;0.40;;;9.80;99.90;;;;;;5027908;28;20697;-76
2023/12/24 05:39:52;;;;;;;1.13;0.40;;;9.80;99.90;;;;;;5028232;28;20318;-76
2023/12/24 05:42:20;;;;;;;0.40;0.40;;;9.80;99.90;;;;;;5019467;28;20253;-76
2023/12/24 05:44:48;;;;;;;0.43;0.43;;;9.70;99.90;;;;;;5029769;28;20286;-76
2023/12/24 05:47:17;;;;;;;0.73;0.30;;;9.70;99.90;;;;;;5030502;28;21623;-76
2023/12/24 05:49:45;;;;;;;1.10;0.52;;;9.70;99.90;;;;;;5030758;28;20210;-76
2023/12/24 05:52:13;;;;;;;0.55;0.50;;;9.60;99.90;;;;;;5030549;28;20249;-76
2023/12/24 05:54:41;;;;;;;0.30;0.30;;;9.50;99.90;;;;;;5030394;28;20672;-77
2023/12/24 05:57:09;;;;;;;1.83;0.40;;;9.50;99.90;;;;;;5029650;28;20231;-76
2023/12/24 05:59:38;;;;;;;0.30;0.30;;;9.40;99.90;;;;;;5030299;28;20301;-75
2023/12/24 06:02:06;;;;;;;2.80;0.35;;;9.40;99.90;;;;;;5025748;28;20718;-77
2023/12/24 06:04:36;;;;;;;0.30;0.30;;;9.40;99.90;;;;;;5026599;28;20708;-77
2023/12/24 06:07:04;;;;;;;0.57;0.38;;;9.40;99.90;;;;;;5028850;28;20695;-76
2023/12/24 06:09:32;;;;;;;0.73;0.40;;;9.30;99.90;;;;;;5030761;28;20373;-77
2023/12/24 06:12:00;;;;;;;1.10;0.60;;;9.30;99.90;;;;;;5031216;28;20660;-77
2023/12/24 06:14:28;;;;;;;0.38;0.38;;;9.30;99.90;;;;;;5023665;28;20577;-77
2023/12/24 06:16:56;;;;;;;0.50;0.50;;;9.30;99.90;;;;;;5023453;28;20236;-78
2023/12/24 06:19:24;;;;;;;0.57;0.40;;;9.20;99.90;;;;;;5021509;28;20207;-77
2023/12/24 06:21:53;;;;;;;0.35;0.35;;;9.20;99.90;;;;;;5027222;28;20210;-77
2023/12/24 06:24:21;;;;;;;0.45;0.43;;;9.20;99.90;;;;;;5027387;28;20226;-76
2023/12/24 06:26:49;;;;;;;1.80;0.50;;;9.20;99.90;;;;;;5025913;28;20253;-77
2023/12/24 06:29:17;;;;;;;0.90;0.70;;;9.20;99.90;;;;;;5032882;28;20233;-79
2023/12/24 06:31:46;;;;;;;2.33;0.60;;;9.20;99.90;;;;;;5035853;28;20301;-78
2023/12/24 06:34:13;;;;;;;0.60;0.60;;;9.20;99.90;;;;;;5043280;28;20203;-78
2023/12/24 06:36:41;;;;;;;0.55;0.55;;;9.10;99.90;;;;;;5041215;28;20226;-78
2023/12/24 06:39:11;;;;;;;0.95;0.70;;;9.20;99.90;;;;;;5037426;28;20207;-78
2023/12/24 06:41:39;;;;;;;2.38;0.63;;;9.20;99.90;;;;;;5035836;28;20211;-77
2023/12/24 06:44:09;;;;;;;1.48;0.52;;;9.20;99.90;;;;;;5030981;28;20298;-77
2023/12/24 06:46:37;;;;;;;0.60;0.60;;;9.20;99.90;;;;;;5024803;28;20230;-77
2023/12/24 06:49:05;;;;;;;1.00;0.50;;;9.20;99.90;;;;;;5031192;28;20317;-77
2023/12/24 06:51:33;;;;;;;1.95;0.38;;;9.20;99.90;;;;;;5025068;28;20211;-77
2023/12/24 06:54:00;;;;;;;0.40;0.40;;;9.20;99.90;;;;;;5026779;28;20238;-76
2023/12/24 06:56:30;;;;;;;0.30;0.30;;;9.20;99.90;;;;;;5031678;28;20250;-77
2023/12/24 06:58:58;;;;;;;0.50;0.50;;;9.20;99.90;;;;;;5032148;28;20209;-77
2023/12/24 07:01:25;;;;;;;3.63;0.52;;;9.10;99.90;;;;;;5033027;28;20588;-74
2023/12/24 07:03:53;;;;;;;0.38;0.38;;;9.10;99.90;;;;;;5028891;28;20246;-73
2023/12/24 07:06:21;;;;;;;1.13;0.50;;;9.10;99.90;;;;;;5030936;28;20266;-74
2023/12/24 07:08:49;;;;;;;4.03;0.40;;;9.10;99.90;;;;;;5030234;28;20260;-73
2023/12/24 07:11:17;;;;;;;0.40;0.40;;;9.20;99.90;;;;;;5029996;28;20284;-73
2023/12/24 07:13:47;;;;;;;0.30;0.30;;;9.20;99.90;;;;;;5031673;28;20211;-74
2023/12/24 07:16:14;;;;;;;0.30;0.30;;;9.20;99.90;;;;;;5028577;28;20306;-74
2023/12/24 07:18:42;;;;;;;0.80;0.40;;;9.20;99.90;;;;;;5021920;28;20314;-75
2023/12/24 07:21:10;;;;;;;0.40;0.35;;;9.20;99.90;;;;;;5032184;28;20664;-76
2023/12/24 07:23:38;;;;;;;0.82;0.32;;;9.20;99.90;;;;;;5033383;28;20692;-73
2023/12/24 07:26:07;;;;;;;1.38;0.30;;;9.20;99.90;;;;;;5022366;28;20294;-74
2023/12/24 07:28:35;;;;;;;0.30;0.30;;;9.20;99.90;;;;;;5030593;28;20202;-73
2023/12/24 07:31:04;;;;;;;1.23;0.30;;;9.20;99.90;;;;;;5021785;28;20218;-73
2023/12/24 07:33:33;;;;;;;0.35;0.30;;;9.20;99.90;;;;;;5028380;28;20270;-73
2023/12/24 07:36:01;;;;;;;0.57;0.57;;;9.20;99.90;;;;;;5030222;28;20263;-74
2023/12/24 07:38:30;;;;;;;0.45;0.40;;;9.20;99.90;;;;;;5032712;28;20342;-74
2023/12/24 07:40:58;;;;;;;0.40;0.20;;;9.10;99.90;;;;;;5032025;28;20206;-75
2023/12/24 07:43:27;;;;;;;2.50;0.32;;;9.10;99.90;;;;;;5025001;28;20202;-76
2023/12/24 07:45:55;;;;;;;0.40;0.40;;;9.10;99.90;;;;;;5030739;28;20272;-75
2023/12/24 07:48:25;;;;;;;0.30;0.30;;;9.10;99.90;;;;;;5021759;28;20233;-74
2023/12/24 07:50:53;;;;;;;3.17;0.40;;;9.10;99.90;;;;;;5032565;28;20252;-74
2023/12/24 07:53:21;;;;;;;0.20;0.20;;;9.20;99.90;;;;;;5033337;28;20253;-76
2023/12/24 07:55:50;;;;;;;0.38;0.30;;;9.20;99.90;;;;;;5019876;28;20199;-76
2023/12/24 07:58:17;;;;;;;0.35;0.35;;;9.20;99.90;;;;;;5021797;28;20642;-75
2023/12/24 08:00:45;;;;;;;0.30;0.30;;;9.20;99.90;;;;;;5024754;28;20198;-75
2023/12/24 08:03:13;;;;;;;0.20;0.20;;;9.20;99.90;;;;;;5028491;28;20210;-74
2023/12/24 08:05:43;;;;;;;2.42;0.30;;;9.20;99.90;;;;;;5022022;28;20239;-74
2023/12/24 08:08:11;;;;;;;0.20;0.20;;;9.20;99.90;;;;;;5025969;28;20726;-74
2023/12/24 08:10:39;;;;;;;1.17;0.20;;;9.20;99.90;;;;;;5031841;28;20318;-75
2023/12/24 08:13:07;;;;;;;0.10;0.10;;;9.30;99.90;;;;;;5024582;28;20294;-75
2023/12/24 08:15:41;;;;;;;0.95;0.10;;;9.30;99.90;;;;;;5027901;28;20207;-73
2023/12/24 08:18:09;;;;;;;0.20;0.20;;;9.30;99.90;;;;;;5031857;28;20261;-75
2023/12/24 08:20:37;;;;;;;0.20;0.20;;;9.30;99.90;;;;;;5023711;28;20203;-76
2023/12/24 08:23:07;;;;;;;0.22;0.20;;;9.30;99.90;;;;;;5032165;28;20242;-74
2023/12/24 08:25:35;;;;;;;0.10;0.10;;;9.30;99.90;;;;;;5023728;28;20226;-76
2023/12/24 08:28:05;;;;;;;0.10;0.10;;;9.30;99.90;;;;;;5027385;28;20257;-75
2023/12/24 08:30:33;;;;;;;0.30;0.10;;;9.30;99.90;;;;;;5031829;28;20637;-75
2023/12/24 08:33:01;;;;;;;0.10;0.10;;;9.30;99.90;;;;;;5031953;28;20207;-75
2023/12/24 08:35:29;;;;;;;0.22;0.22;;;9.30;99.90;;;;;;5021741;28;20582;-75
2023/12/24 08:37:56;;;;;;;0.28;0.25;;;9.30;99.90;;;;;;5028146;28;20250;-75
2023/12/24 08:40:27;;;;;;;0.20;0.20;;;9.30;99.90;;;;;;5031074;28;20284;-75
2023/12/24 08:42:55;;;;;;;0.30;0.30;;;9.30;99.90;;;;;;5031113;28;20206;-75
2023/12/24 08:45:23;;;;;;;2.40;0.10;;;9.40;99.90;;;;;;5028174;28;20226;-76
2023/12/24 08:47:51;;;;;;;0.10;0.10;;;9.40;99.90;;;;;;5025263;28;20250;-75
2023/12/24 08:50:20;;;;;;;0.20;0.20;;;9.40;99.90;;;;;;5024474;28;20205;-75
2023/12/24 08:52:48;;;;;;;0.63;0.15;;;9.40;99.90;;;;;;5030549;28;20245;-76
2023/12/24 08:55:17;;;;;;;0.20;0.20;;;9.50;99.90;;;;;;5023645;28;20257;-75
2023/12/24 08:57:47;;;;;;;1.08;0.20;;;9.50;99.90;;;;;;5030913;28;20959;-76
2023/12/24 09:00:16;;;;;;;0.13;0.13;;;9.50;99.90;;;;;;5024231;28;20222;-75
2023/12/24 09:02:45;;;;;;;0.88;0.20;;;9.50;99.90;;;;;;5026769;28;20252;-75
2023/12/24 09:05:13;;;;;;;0.13;0.13;;;9.50;99.90;;;;;;5022315;28;20222;-75
2023/12/24 09:07:40;;;;;;;1.05;0.20;;;9.60;99.90;;;;;;5022179;28;20366;-75
2023/12/24 09:10:09;;;;;;;0.28;0.28;;;9.60;99.90;;;;;;5021217;28;22060;-75
2023/12/24 09:12:36;;;;;;;0.35;0.35;;;9.60;99.90;;;;;;5029727;28;20234;-75
2023/12/24 09:15:07;;;;;;;0.20;0.20;;;9.60;99.90;;;;;;5025378;28;20221;-75
2023/12/24 09:17:34;;;;;;;0.10;0.10;;;9.60;99.90;;;;;;5024627;28;20723;-73
2023/12/24 09:20:04;;;;;;;0.20;0.20;;;9.60;99.90;;;;;;5027320;28;20210;-75
2023/12/24 09:22:34;;;;;;;0.10;0.10;;;9.60;99.90;;;;;;5012072;28;20206;-76
2023/12/24 09:25:02;;;;;;;0.13;0.13;;;9.70;99.90;;;;;;5019248;28;20309;-76
2023/12/24 09:27:29;;;;;;;0.10;0.10;;;9.70;99.90;;;;;;5024619;28;20313;-76
2023/12/24 09:30:03;;;;;;;0.10;0.10;;;9.70;99.90;;;;;;5020589;28;20202;-73
2023/12/24 09:32:33;;;;;;;0.28;0.25;;;9.60;99.90;;;;;;5019577;28;20406;-77
2023/12/24 09:35:01;;;;;;;0.10;0.10;;;9.70;99.90;;;;;;5022280;28;20656;-76
2023/12/24 09:37:29;;;;;;;0.10;0.10;;;9.70;99.90;;;;;;5026539;28;20257;-76
2023/12/24 09:39:57;;;;;;;0.43;0.10;;;9.70;99.90;;;;;;5018594;28;20215;-76
2023/12/24 09:42:25;;;;;;;0.22;0.10;;;9.70;99.90;;;;;;5031046;28;20245;-76
2023/12/24 09:44:53;;;;;;;0.13;0.13;;;9.80;99.90;;;;;;5029846;28;20218;-76
2023/12/24 09:47:21;;;;;;;0.03;0.03;;;9.70;99.90;;;;;;5024301;28;20373;-76
2023/12/24 09:49:51;;;;;;;0.08;0.08;;;9.70;99.90;;;;;;5022202;28;20654;-76
2023/12/24 09:52:19;;;;;;;0.20;0.10;;;9.80;99.90;;;;;;5019180;28;20211;-76
2023/12/24 09:54:47;;;;;;;0.85;0.10;;;9.70;99.90;;;;;;5022121;28;20226;-74
2023/12/24 09:57:15;;;;;;;0.20;0.20;;;9.80;99.90;;;;;;5029428;28;20739;-74
2023/12/24 09:59:43;;;;;;;1.27;0.10;;;9.70;99.90;;;;;;5030652;28;20234;-75
2023/12/24 10:02:11;;;;;;;0.10;0.10;;;9.80;99.90;;;;;;5030022;28;20286;-74
2023/12/24 10:04:39;;;;;;;0.10;0.10;;;9.80;99.90;;;;;;5030291;28;20218;-75
2023/12/24 10:07:09;;;;;;;0.10;0.10;;;9.80;99.90;;;;;;5023855;28;20219;-75
2023/12/24 10:09:44;;;;;;;0.20;0.10;;;9.90;99.90;;;;;;5025339;28;20594;-75
2023/12/24 10:12:12;;;;;;;0.00;0.00;;;9.90;99.90;;;;;;5030210;28;20202;-74
2023/12/24 10:14:41;;;;;;;0.20;0.20;;;9.90;99.90;;;;;;5025278;28;20215;-73
2023/12/24 10:17:09;;;;;;;0.68;0.10;;;10.00;99.90;;;;;;5026878;28;20218;-74
2023/12/24 10:19:37;;;;;;;0.10;0.10;;;10.00;99.90;;;;;;5024733;28;20309;-73
2023/12/24 10:22:06;;;;;;;0.10;0.10;;;10.00;99.90;;;;;;5029511;28;20272;-74
2023/12/24 10:24:38;;;;;;;0.03;0.03;;;10.00;99.90;;;;;;5031742;28;20203;-75
2023/12/24 10:27:06;;;;;;;0.10;0.10;;;10.00;99.90;;;;;;5024534;28;20222;-74
2023/12/24 10:29:35;;;;;;;0.10;0.10;;;10.10;99.90;;;;;;5024386;28;20241;-75
2023/12/24 10:32:04;;;;;;;0.00;0.00;;;10.10;99.90;;;;;;5030027;28;20241;-74
2023/12/24 10:34:33;;;;;;;0.10;0.10;;;10.10;99.90;;;;;;5024448;28;20202;-76
2023/12/24 10:37:16;;;;;;;0.45;0.08;;;10.10;99.90;;;;;;5033573;28;20260;-73
2023/12/24 10:39:45;;;;;;;0.10;0.10;;;10.20;99.90;;;;;;5032758;28;20296;-74
2023/12/24 10:42:13;;;;;;;0.10;0.10;;;10.20;99.90;;;;;;5030915;28;20218;-74
2023/12/24 10:44:41;;;;;;;0.65;0.03;;;10.30;99.90;;;;;;5032131;28;20564;-74
2023/12/24 10:47:09;;;;;;;0.10;0.03;;;10.30;99.90;;;;;;5022873;28;20309;-74
2023/12/24 10:49:37;;;;;;;0.15;0.10;;;10.30;99.90;;;;;;5025420;28;20645;-74
2023/12/24 10:52:05;;;;;;;0.08;0.08;;;10.40;99.90;;;;;;5013912;28;20302;-74
2023/12/24 10:54:33;;;;;;;0.00;0.00;;;10.40;99.90;;;;;;5033214;28;20203;-74
2023/12/24 10:57:14;;;;;;;0.70;0.08;;;10.40;99.90;;;;;;5032845;28;20226;-74
2023/12/24 11:00:04;;;;;;;0.00;0.00;;;10.40;99.90;;;;;;5032614;28;20264;-74
2023/12/24 11:02:32;;;;;;;0.20;0.10;;;10.40;99.90;;;;;;5023611;28;20669;-73
2023/12/24 11:05:00;;;;;;;0.10;0.10;;;10.40;99.90;;;;;;5031361;28;20220;-73
2023/12/24 11:07:49;;;;;;;0.00;0.00;;;10.40;99.90;;;;;;5025375;28;20273;-74
2023/12/24 11:10:38;;;;;;;0.00;0.00;;;10.50;99.90;;;;;;5021356;28;20202;-73
2023/12/24 11:13:32;;;;;;;0.20;0.10;;;10.50;99.90;;;;;;5023237;28;20286;-73
2023/12/24 11:16:01;;;;;;;0.75;0.20;;;10.40;99.90;;;;;;5029753;28;20203;-73
2023/12/24 11:18:40;;;;;;;0.10;0.10;;;10.50;99.90;;;;;;5022695;28;20249;-73
2023/12/24 11:21:08;;;;;;;1.65;0.10;;;10.50;99.90;;;;;;5027578;28;20225;-73
2023/12/24 11:23:36;;;;;;;0.00;0.00;;;10.50;99.90;;;;;;5021506;28;20345;-73
2023/12/24 11:26:19;;;;;;;0.00;0.00;;;10.50;99.90;;;;;;5021942;28;20277;-73
2023/12/24 11:28:48;;;;;;;0.30;0.30;;;10.60;99.90;;;;;;5027426;28;20210;-73
2023/12/24 11:31:20;;;;;;;0.20;0.00;;;10.60;99.90;;;;;;5022531;28;21306;-73
2023/12/24 11:33:48;;;;;;;0.00;0.00;;;10.60;99.90;;;;;;5028227;28;20736;-73
2023/12/24 11:36:18;;;;;;;1.63;0.20;;;10.70;99.90;;;;;;5032308;28;20289;-73
2023/12/24 11:38:46;;;;;;;0.10;0.10;;;10.70;99.90;;;;;;5032673;28;20593;-73
2023/12/24 11:41:18;;;;;;;0.20;0.15;;;10.70;99.90;;;;;;5032237;28;20763;-73
2023/12/24 11:43:55;;;;;;;0.20;0.20;;;10.70;99.90;;;;;;5032454;28;20620;-73
2023/12/24 11:46:23;;;;;;;0.30;0.10;;;10.70;99.90;;;;;;5030672;28;20249;-73
2023/12/24 11:48:51;;;;;;;0.00;0.00;;;10.70;99.90;;;;;;5032866;28;20238;-73
2023/12/24 11:51:22;;;;;;;0.00;0.00;;;10.70;99.90;;;;;;5032823;28;20202;-73
2023/12/24 11:53:51;;;;;;;0.00;0.00;;;10.80;99.90;;;;;;5031830;28;20238;-73
2023/12/24 11:56:20;;;;;;;0.10;0.10;;;10.70;99.90;;;;;;5027692;28;20207;-73
2023/12/24 11:58:59;;;;;;;0.10;0.10;;;10.80;99.90;;;;;;5028429;28;20199;-73
2023/12/24 12:01:28;;;;;;;0.10;0.10;;;10.70;99.90;;;;;;5032131;28;20198;-73
2023/12/24 12:03:57;;;;;;;0.10;0.10;;;10.70;99.90;;;;;;5027475;28;20289;-73
2023/12/24 12:06:25;;;;;;;0.10;0.10;;;10.80;99.90;;;;;;5025312;28;20284;-74
2023/12/24 12:08:54;;;;;;;0.10;0.10;;;10.80;99.90;;;;;;5029247;28;20293;-73
2023/12/24 12:11:21;;;;;;;0.00;0.00;;;10.80;99.90;;;;;;5019139;28;20211;-73
2023/12/24 12:13:49;;;;;;;0.00;0.00;;;10.70;99.90;;;;;;5030487;28;20656;-73
2023/12/24 12:16:19;;;;;;;1.55;0.10;;;10.80;99.90;;;;;;5022057;28;20736;-73
2023/12/24 12:18:47;;;;;;;0.20;0.08;;;10.80;99.90;;;;;;5027455;28;20202;-73
2023/12/24 12:21:14;;;;;;;0.10;0.10;;;10.80;99.90;;;;;;5030326;28;20228;-73
2023/12/24 12:23:42;;;;;;;0.13;0.10;;;10.80;99.90;;;;;;5030439;28;20770;-73
2023/12/24 12:26:10;;;;;;;0.20;0.10;;;10.90;99.90;;;;;;5028777;28;20237;-73
2023/12/24 12:28:38;;;;;;;0.10;0.10;;;10.90;99.90;;;;;;5031543;28;20214;-73
2023/12/24 12:31:06;;;;;;;0.00;0.00;;;10.90;99.90;;;;;;5031379;28;20226;-73
2023/12/24 12:33:35;;;;;;;1.90;0.10;;;10.90;99.90;;;;;;5031272;28;20687;-73
2023/12/24 12:36:06;;;;;;;0.00;0.00;;;10.90;99.90;;;;;;5028643;28;20199;-73
2023/12/24 12:38:35;;;;;;;0.10;0.10;;;10.90;99.90;;;;;;5030233;28;20256;-73
2023/12/24 12:41:04;;;;;;;0.70;0.10;;;10.90;99.90;;;;;;5030145;28;20215;-73
2023/12/24 12:43:33;;;;;;;0.10;0.10;;;10.90;99.90;;;;;;5028363;28;20202;-73
2023/12/24 12:46:00;;;;;;;0.10;0.10;;;10.90;99.90;;;;;;5029537;28;20292;-73
2023/12/24 12:48:28;;;;;;;0.30;0.10;;;10.90;99.90;;;;;;5022870;28;20301;-73
2023/12/24 12:50:58;;;;;;;0.10;0.10;;;10.90;99.90;;;;;;5022403;28;20276;-73
2023/12/24 12:53:26;;;;;;;0.38;0.10;;;10.90;99.90;;;;;;5028746;28;20203;-73
2023/12/24 12:56:01;;;;;;;0.57;0.10;;;10.90;99.90;;;;;;5030418;28;20202;-73
2023/12/24 12:58:29;;;;;;;0.25;0.20;;;10.90;99.90;;;;;;5028518;28;20232;-73
2023/12/24 13:00:58;;;;;;;0.00;0.00;;;10.90;99.90;;;;;;5031055;28;20470;-73